sensor_id;sensor_type;location;lat;lon;timestamp;pressure;altitude;pressure_sealevel;temperature;humidity
20115;BME280;10218;42.874;25.320;2023-11-21T00:00:38;96994.59;;;6.17;100.00
20115;BME280;10218;42.874;25.320;2023-11-21T00:03:05;97010.19;;;6.29;100.00
20115;BME280;10218;42.874;25.320;2023-11-21T00:05:33;97016.78;;;6.16;100.00
20115;BME280;10218;42.874;25.320;2023-11-21T00:08:01;97009.72;;;6.07;100.00
20115;BME280;10218;42.874;25.320;2023-11-21T00:10:29;97017.25;;;6.11;100.00
20115;BME280;10218;42.874;25.320;2023-11-21T00:12:57;97018.53;;;6.25;100.00
20115;BME280;10218;42.874;25.320;2023-11-21T00:15:25;97016.84;;;6.33;100.00
20115;BME280;10218;42.874;25.320;2023-11-21T00:17:54;97018.38;;;6.54;100.00
20115;BME280;10218;42.874;25.320;2023-11-21T00:20:21;97012.91;;;6.37;100.00
20115;BME280;10218;42.874;25.320;2023-11-21T00:22:48;97006.34;;;6.14;100.00
20115;BME280;10218;42.874;25.320;2023-11-21T00:25:16;97002.53;;;5.99;100.00
20115;BME280;10218;42.874;25.320;2023-11-21T00:27:44;97006.97;;;6.26;100.00
20115;BME280;10218;42.874;25.320;2023-11-21T00:30:11;96998.03;;;5.99;100.00
20115;BME280;10218;42.874;25.320;2023-11-21T00:32:39;96999.66;;;6.10;100.00
20115;BME280;10218;42.874;25.320;2023-11-21T00:35:07;97008.41;;;5.93;100.00
20115;BME280;10218;42.874;25.320;2023-11-21T00:37:35;97009.47;;;6.00;100.00
20115;BME280;10218;42.874;25.320;2023-11-21T00:40:04;97014.56;;;5.93;100.00
20115;BME280;10218;42.874;25.320;2023-11-21T00:42:33;97000.22;;;6.14;100.00
20115;BME280;10218;42.874;25.320;2023-11-21T00:45:00;97001.75;;;5.89;100.00
20115;BME280;10218;42.874;25.320;2023-11-21T00:47:28;97001.44;;;5.92;100.00
20115;BME280;10218;42.874;25.320;2023-11-21T00:49:55;97002.22;;;6.02;100.00
20115;BME280;10218;42.874;25.320;2023-11-21T00:52:24;96999.56;;;6.02;100.00
20115;BME280;10218;42.874;25.320;2023-11-21T00:54:52;96988.91;;;5.75;100.00
20115;BME280;10218;42.874;25.320;2023-11-21T00:57:19;96994.03;;;5.58;100.00
20115;BME280;10218;42.874;25.320;2023-11-21T00:59:47;96994.53;;;5.72;100.00
20115;BME280;10218;42.874;25.320;2023-11-21T01:02:15;96986.00;;;6.05;100.00
20115;BME280;10218;42.874;25.320;2023-11-21T01:04:42;96988.31;;;6.18;100.00
20115;BME280;10218;42.874;25.320;2023-11-21T01:07:09;96998.69;;;6.11;100.00
20115;BME280;10218;42.874;25.320;2023-11-21T01:09:36;96986.72;;;6.25;100.00
20115;BME280;10218;42.874;25.320;2023-11-21T01:12:03;96981.78;;;6.12;100.00
20115;BME280;10218;42.874;25.320;2023-11-21T01:14:31;96981.41;;;6.25;100.00
20115;BME280;10218;42.874;25.320;2023-11-21T01:16:59;96967.72;;;6.29;100.00
20115;BME280;10218;42.874;25.320;2023-11-21T01:19:27;96974.09;;;6.36;100.00
20115;BME280;10218;42.874;25.320;2023-11-21T01:21:56;96967.44;;;6.50;100.00
20115;BME280;10218;42.874;25.320;2023-11-21T01:24:25;96966.66;;;6.58;100.00
20115;BME280;10218;42.874;25.320;2023-11-21T01:26:52;96982.50;;;6.67;100.00
20115;BME280;10218;42.874;25.320;2023-11-21T01:29:19;96975.59;;;6.57;100.00
20115;BME280;10218;42.874;25.320;2023-11-21T01:31:48;96983.78;;;6.45;100.00
20115;BME280;10218;42.874;25.320;2023-11-21T01:34:16;96973.44;;;6.25;100.00
20115;BME280;10218;42.874;25.320;2023-11-21T01:36:46;96976.06;;;5.80;100.00
20115;BME280;10218;42.874;25.320;2023-11-21T01:39:14;96964.72;;;5.60;100.00
20115;BME280;10218;42.874;25.320;2023-11-21T01:41:43;96968.25;;;5.88;100.00
20115;BME280;10218;42.874;25.320;2023-11-21T01:44:13;96971.78;;;5.42;100.00
20115;BME280;10218;42.874;25.320;2023-11-21T01:46:40;96970.44;;;5.28;100.00
20115;BME280;10218;42.874;25.320;2023-11-21T01:49:10;96972.06;;;5.29;100.00
20115;BME280;10218;42.874;25.320;2023-11-21T01:51:43;96965.56;;;5.60;100.00
20115;BME280;10218;42.874;25.320;2023-11-21T01:54:12;96958.56;;;5.32;100.00
20115;BME280;10218;42.874;25.320;2023-11-21T01:56:41;96965.03;;;5.10;100.00
20115;BME280;10218;42.874;25.320;2023-11-21T01:59:08;96964.44;;;5.26;100.00
20115;BME280;10218;42.874;25.320;2023-11-21T02:01:36;96967.13;;;5.07;100.00
20115;BME280;10218;42.874;25.320;2023-11-21T02:04:03;96964.12;;;5.29;100.00
20115;BME280;10218;42.874;25.320;2023-11-21T02:06:32;96968.22;;;5.14;100.00
20115;BME280;10218;42.874;25.320;2023-11-21T02:08:59;96952.34;;;5.14;100.00
20115;BME280;10218;42.874;25.320;2023-11-21T02:11:26;96960.56;;;5.57;100.00
20115;BME280;10218;42.874;25.320;2023-11-21T02:13:54;96962.50;;;5.55;100.00
20115;BME280;10218;42.874;25.320;2023-11-21T02:16:21;96952.13;;;5.72;100.00
20115;BME280;10218;42.874;25.320;2023-11-21T02:18:48;96957.28;;;5.36;100.00
20115;BME280;10218;42.874;25.320;2023-11-21T02:21:16;96956.25;;;5.84;100.00
20115;BME280;10218;42.874;25.320;2023-11-21T02:23:44;96950.94;;;6.11;100.00
20115;BME280;10218;42.874;25.320;2023-11-21T02:26:13;96954.88;;;6.07;100.00
20115;BME280;10218;42.874;25.320;2023-11-21T02:28:41;96961.47;;;6.03;100.00
20115;BME280;10218;42.874;25.320;2023-11-21T02:31:09;96951.75;;;5.84;100.00
20115;BME280;10218;42.874;25.320;2023-11-21T02:33:36;96948.12;;;5.85;100.00
20115;BME280;10218;42.874;25.320;2023-11-21T02:36:05;96954.03;;;5.89;100.00
20115;BME280;10218;42.874;25.320;2023-11-21T02:38:32;96949.12;;;5.94;100.00
20115;BME280;10218;42.874;25.320;2023-11-21T02:41:00;96952.81;;;5.37;100.00
20115;BME280;10218;42.874;25.320;2023-11-21T02:43:27;96949.84;;;5.03;100.00
20115;BME280;10218;42.874;25.320;2023-11-21T02:45:54;96955.16;;;5.12;100.00
20115;BME280;10218;42.874;25.320;2023-11-21T02:48:21;96944.28;;;5.06;100.00
20115;BME280;10218;42.874;25.320;2023-11-21T02:50:51;96949.88;;;4.84;100.00
20115;BME280;10218;42.874;25.320;2023-11-21T02:53:20;96944.13;;;4.98;100.00
20115;BME280;10218;42.874;25.320;2023-11-21T02:55:47;96942.38;;;4.79;100.00
20115;BME280;10218;42.874;25.320;2023-11-21T02:58:15;96954.59;;;4.99;100.00
20115;BME280;10218;42.874;25.320;2023-11-21T03:00:42;96948.78;;;4.86;100.00
20115;BME280;10218;42.874;25.320;2023-11-21T03:03:09;96948.22;;;4.83;100.00
20115;BME280;10218;42.874;25.320;2023-11-21T03:05:37;96948.75;;;4.96;100.00
20115;BME280;10218;42.874;25.320;2023-11-21T03:08:06;96947.34;;;5.11;100.00
20115;BME280;10218;42.874;25.320;2023-11-21T03:10:33;96945.28;;;5.42;100.00
20115;BME280;10218;42.874;25.320;2023-11-21T03:13:00;96942.69;;;5.32;100.00
20115;BME280;10218;42.874;25.320;2023-11-21T03:15:28;96945.16;;;5.43;100.00
20115;BME280;10218;42.874;25.320;2023-11-21T03:17:55;96934.97;;;5.66;100.00
20115;BME280;10218;42.874;25.320;2023-11-21T03:20:23;96941.75;;;6.06;100.00
20115;BME280;10218;42.874;25.320;2023-11-21T03:22:51;96952.81;;;5.37;100.00
20115;BME280;10218;42.874;25.320;2023-11-21T03:25:19;96944.09;;;5.64;100.00
20115;BME280;10218;42.874;25.320;2023-11-21T03:27:48;96946.63;;;5.83;100.00
20115;BME280;10218;42.874;25.320;2023-11-21T03:30:16;96948.25;;;5.66;100.00
20115;BME280;10218;42.874;25.320;2023-11-21T03:32:44;96945.66;;;5.84;100.00
20115;BME280;10218;42.874;25.320;2023-11-21T03:35:12;96940.91;;;5.87;100.00
20115;BME280;10218;42.874;25.320;2023-11-21T03:37:40;96931.41;;;6.12;100.00
20115;BME280;10218;42.874;25.320;2023-11-21T03:40:08;96927.31;;;5.36;100.00
20115;BME280;10218;42.874;25.320;2023-11-21T03:42:36;96932.69;;;6.08;100.00
20115;BME280;10218;42.874;25.320;2023-11-21T03:45:04;96927.53;;;6.07;100.00
20115;BME280;10218;42.874;25.320;2023-11-21T03:47:31;96919.25;;;6.10;100.00
20115;BME280;10218;42.874;25.320;2023-11-21T03:49:59;96931.00;;;6.07;100.00
20115;BME280;10218;42.874;25.320;2023-11-21T03:52:26;96924.78;;;5.98;100.00
20115;BME280;10218;42.874;25.320;2023-11-21T03:54:55;96940.41;;;6.01;100.00
20115;BME280;10218;42.874;25.320;2023-11-21T03:57:23;96941.69;;;5.97;100.00
20115;BME280;10218;42.874;25.320;2023-11-21T03:59:51;96934.41;;;5.99;100.00
20115;BME280;10218;42.874;25.320;2023-11-21T04:02:18;96926.09;;;5.85;100.00
20115;BME280;10218;42.874;25.320;2023-11-21T04:04:46;96940.28;;;6.38;100.00
20115;BME280;10218;42.874;25.320;2023-11-21T04:07:14;96929.81;;;6.19;100.00
20115;BME280;10218;42.874;25.320;2023-11-21T04:09:41;96939.50;;;6.11;100.00
20115;BME280;10218;42.874;25.320;2023-11-21T04:12:08;96953.91;;;6.08;100.00
20115;BME280;10218;42.874;25.320;2023-11-21T04:14:36;96945.16;;;5.43;100.00
20115;BME280;10218;42.874;25.320;2023-11-21T04:17:03;96950.31;;;5.35;100.00
20115;BME280;10218;42.874;25.320;2023-11-21T04:19:31;96949.66;;;5.60;100.00
20115;BME280;10218;42.874;25.320;2023-11-21T04:21:58;96944.25;;;5.80;100.00
20115;BME280;10218;42.874;25.320;2023-11-21T04:24:25;96945.13;;;5.71;100.00
20115;BME280;10218;42.874;25.320;2023-11-21T04:26:53;96946.63;;;5.83;100.00
20115;BME280;10218;42.874;25.320;2023-11-21T04:29:20;96946.63;;;6.10;100.00
20115;BME280;10218;42.874;25.320;2023-11-21T04:31:47;96945.63;;;5.93;100.00
20115;BME280;10218;42.874;25.320;2023-11-21T04:34:16;96949.94;;;5.85;100.00
20115;BME280;10218;42.874;25.320;2023-11-21T04:36:44;96941.03;;;6.13;100.00
20115;BME280;10218;42.874;25.320;2023-11-21T04:39:11;96932.97;;;6.05;100.00
20115;BME280;10218;42.874;25.320;2023-11-21T04:41:38;96947.22;;;6.04;100.00
20115;BME280;10218;42.874;25.320;2023-11-21T04:44:06;96948.59;;;5.53;100.00
20115;BME280;10218;42.874;25.320;2023-11-21T04:46:33;96945.03;;;5.35;100.00
20115;BME280;10218;42.874;25.320;2023-11-21T04:49:01;96942.19;;;5.46;100.00
20115;BME280;10218;42.874;25.320;2023-11-21T04:51:28;96941.50;;;5.72;100.00
20115;BME280;10218;42.874;25.320;2023-11-21T04:53:55;96934.53;;;5.71;100.00
20115;BME280;10218;42.874;25.320;2023-11-21T04:56:23;96932.88;;;5.70;100.00
20115;BME280;10218;42.874;25.320;2023-11-21T04:58:50;96939.16;;;5.41;100.00
20115;BME280;10218;42.874;25.320;2023-11-21T05:01:17;96943.16;;;4.99;100.00
20115;BME280;10218;42.874;25.320;2023-11-21T05:03:45;96939.56;;;5.00;100.00
20115;BME280;10218;42.874;25.320;2023-11-21T05:06:13;96939.53;;;5.09;100.00
20115;BME280;10218;42.874;25.320;2023-11-21T05:08:41;96938.97;;;5.06;100.00
20115;BME280;10218;42.874;25.320;2023-11-21T05:11:09;96931.44;;;5.11;100.00
20115;BME280;10218;42.874;25.320;2023-11-21T05:13:37;96947.75;;;5.53;100.00
20115;BME280;10218;42.874;25.320;2023-11-21T05:16:06;96944.31;;;5.70;100.00
20115;BME280;10218;42.874;25.320;2023-11-21T05:18:33;96947.41;;;5.66;100.00
20115;BME280;10218;42.874;25.320;2023-11-21T05:21:01;96955.19;;;6.04;100.00
20115;BME280;10218;42.874;25.320;2023-11-21T05:23:28;96951.81;;;6.29;100.00
20115;BME280;10218;42.874;25.320;2023-11-21T05:25:56;96960.50;;;5.67;100.00
20115;BME280;10218;42.874;25.320;2023-11-21T05:28:24;96969.53;;;5.74;100.00
20115;BME280;10218;42.874;25.320;2023-11-21T05:30:51;96964.47;;;5.90;100.00
20115;BME280;10218;42.874;25.320;2023-11-21T05:33:21;96974.69;;;5.76;100.00
20115;BME280;10218;42.874;25.320;2023-11-21T05:35:49;96987.84;;;5.68;100.00
20115;BME280;10218;42.874;25.320;2023-11-21T05:38:16;96972.81;;;5.86;100.00
20115;BME280;10218;42.874;25.320;2023-11-21T05:40:43;96980.38;;;5.53;100.00
20115;BME280;10218;42.874;25.320;2023-11-21T05:43:10;96969.31;;;5.21;100.00
20115;BME280;10218;42.874;25.320;2023-11-21T05:45:38;96975.00;;;5.73;100.00
20115;BME280;10218;42.874;25.320;2023-11-21T05:48:06;96964.62;;;5.89;100.00
20115;BME280;10218;42.874;25.320;2023-11-21T05:50:33;96965.84;;;5.57;100.00
20115;BME280;10218;42.874;25.320;2023-11-21T05:53:00;96976.72;;;5.54;100.00
20115;BME280;10218;42.874;25.320;2023-11-21T05:55:27;96967.28;;;5.89;100.00
20115;BME280;10218;42.874;25.320;2023-11-21T05:57:54;96964.50;;;6.08;100.00
20115;BME280;10218;42.874;25.320;2023-11-21T06:00:21;96955.72;;;6.25;100.00
20115;BME280;10218;42.874;25.320;2023-11-21T06:02:49;96964.09;;;6.48;100.00
20115;BME280;10218;42.874;25.320;2023-11-21T06:05:18;96963.19;;;6.75;100.00
20115;BME280;10218;42.874;25.320;2023-11-21T06:07:45;96953.75;;;7.06;100.00
20115;BME280;10218;42.874;25.320;2023-11-21T06:10:13;96952.56;;;6.75;100.00
20115;BME280;10218;42.874;25.320;2023-11-21T06:12:41;96952.69;;;6.73;100.00
20115;BME280;10218;42.874;25.320;2023-11-21T06:15:10;96957.56;;;6.60;100.00
20115;BME280;10218;42.874;25.320;2023-11-21T06:17:41;96953.44;;;6.66;100.00
20115;BME280;10218;42.874;25.320;2023-11-21T06:20:10;96957.22;;;6.81;100.00
20115;BME280;10218;42.874;25.320;2023-11-21T06:22:45;96947.75;;;6.61;100.00
20115;BME280;10218;42.874;25.320;2023-11-21T06:25:13;96953.91;;;6.79;100.00
20115;BME280;10218;42.874;25.320;2023-11-21T06:27:48;96947.56;;;6.98;100.00
20115;BME280;10218;42.874;25.320;2023-11-21T06:30:15;96954.66;;;6.89;100.00
20115;BME280;10218;42.874;25.320;2023-11-21T06:32:43;96958.78;;;7.09;100.00
20115;BME280;10218;42.874;25.320;2023-11-21T06:35:13;96936.22;;;7.13;100.00
20115;BME280;10218;42.874;25.320;2023-11-21T06:37:40;96948.50;;;7.66;100.00
20115;BME280;10218;42.874;25.320;2023-11-21T06:40:08;96949.75;;;8.46;100.00
20115;BME280;10218;42.874;25.320;2023-11-21T06:42:36;96944.47;;;8.78;100.00
20115;BME280;10218;42.874;25.320;2023-11-21T06:45:05;96941.66;;;8.88;100.00
20115;BME280;10218;42.874;25.320;2023-11-21T06:47:33;96945.63;;;8.76;100.00
20115;BME280;10218;42.874;25.320;2023-11-21T06:50:00;96954.41;;;9.33;100.00
20115;BME280;10218;42.874;25.320;2023-11-21T06:52:27;96948.72;;;11.06;100.00
20115;BME280;10218;42.874;25.320;2023-11-21T06:54:55;96941.41;;;9.30;100.00
20115;BME280;10218;42.874;25.320;2023-11-21T06:57:23;96933.34;;;11.23;100.00
20115;BME280;10218;42.874;25.320;2023-11-21T06:59:50;96936.03;;;10.40;100.00
20115;BME280;10218;42.874;25.320;2023-11-21T07:02:17;96940.66;;;9.68;100.00
20115;BME280;10218;42.874;25.320;2023-11-21T07:04:47;96940.78;;;9.83;100.00
20115;BME280;10218;42.874;25.320;2023-11-21T07:07:14;96935.94;;;10.94;100.00
20115;BME280;10218;42.874;25.320;2023-11-21T07:09:42;96922.50;;;11.39;100.00
20115;BME280;10218;42.874;25.320;2023-11-21T07:12:09;96924.69;;;11.73;100.00
20115;BME280;10218;42.874;25.320;2023-11-21T07:14:37;96938.34;;;13.91;100.00
20115;BME280;10218;42.874;25.320;2023-11-21T07:17:07;96943.31;;;13.32;100.00
20115;BME280;10218;42.874;25.320;2023-11-21T07:19:34;96939.44;;;13.13;100.00
20115;BME280;10218;42.874;25.320;2023-11-21T07:22:01;96940.66;;;12.32;100.00
20115;BME280;10218;42.874;25.320;2023-11-21T07:24:29;96938.41;;;12.35;100.00
20115;BME280;10218;42.874;25.320;2023-11-21T07:26:57;96942.53;;;13.38;100.00
20115;BME280;10218;42.874;25.320;2023-11-21T07:29:25;96938.53;;;13.06;100.00
20115;BME280;10218;42.874;25.320;2023-11-21T07:31:53;96933.12;;;13.83;100.00
20115;BME280;10218;42.874;25.320;2023-11-21T07:34:21;96937.94;;;15.02;96.03
20115;BME280;10218;42.874;25.320;2023-11-21T07:36:48;96939.97;;;14.80;92.54
20115;BME280;10218;42.874;25.320;2023-11-21T07:39:15;96934.84;;;15.64;91.86
20115;BME280;10218;42.874;25.320;2023-11-21T07:41:43;96927.84;;;16.27;78.11
20115;BME280;10218;42.874;25.320;2023-11-21T07:44:16;96929.59;;;17.47;69.68
20115;BME280;10218;42.874;25.320;2023-11-21T07:46:44;96926.00;;;17.53;66.41
20115;BME280;10218;42.874;25.320;2023-11-21T07:49:12;96923.78;;;16.94;74.51
20115;BME280;10218;42.874;25.320;2023-11-21T07:51:44;96914.19;;;18.16;61.96
20115;BME280;10218;42.874;25.320;2023-11-21T07:54:11;96915.69;;;18.12;61.83
20115;BME280;10218;42.874;25.320;2023-11-21T07:56:38;96912.38;;;18.28;58.48
20115;BME280;10218;42.874;25.320;2023-11-21T07:59:05;96915.31;;;19.04;57.94
20115;BME280;10218;42.874;25.320;2023-11-21T08:01:32;96912.09;;;18.84;53.03
20115;BME280;10218;42.874;25.320;2023-11-21T08:04:00;96899.87;;;19.81;52.01
20115;BME280;10218;42.874;25.320;2023-11-21T08:06:30;96906.87;;;18.34;57.08
20115;BME280;10218;42.874;25.320;2023-11-21T08:08:57;96900.75;;;16.92;63.97
20115;BME280;10218;42.874;25.320;2023-11-21T08:11:25;96905.53;;;19.56;51.33
20115;BME280;10218;42.874;25.320;2023-11-21T08:13:56;96901.06;;;19.85;49.81
20115;BME280;10218;42.874;25.320;2023-11-21T08:16:23;96903.34;;;19.23;51.23
20115;BME280;10218;42.874;25.320;2023-11-21T08:18:51;96905.78;;;19.78;51.78
20115;BME280;10218;42.874;25.320;2023-11-21T08:21:18;96915.78;;;18.71;55.00
20115;BME280;10218;42.874;25.320;2023-11-21T08:23:45;96906.25;;;20.62;50.47
20115;BME280;10218;42.874;25.320;2023-11-21T08:26:16;96910.59;;;19.99;53.14
20115;BME280;10218;42.874;25.320;2023-11-21T08:28:44;96897.97;;;21.97;43.91
20115;BME280;10218;42.874;25.320;2023-11-21T08:31:11;96906.66;;;22.15;40.87
20115;BME280;10218;42.874;25.320;2023-11-21T08:33:39;96901.91;;;22.44;36.54
20115;BME280;10218;42.874;25.320;2023-11-21T08:36:09;96902.72;;;20.49;39.21
20115;BME280;10218;42.874;25.320;2023-11-21T08:38:37;96899.53;;;20.01;38.23
20115;BME280;10218;42.874;25.320;2023-11-21T08:41:06;96892.34;;;19.60;38.43
20115;BME280;10218;42.874;25.320;2023-11-21T08:43:35;96896.31;;;19.46;37.84
20115;BME280;10218;42.874;25.320;2023-11-21T08:46:02;96885.25;;;20.05;37.27
20115;BME280;10218;42.874;25.320;2023-11-21T08:48:30;96884.34;;;20.68;36.29
20115;BME280;10218;42.874;25.320;2023-11-21T08:50:57;96883.78;;;20.95;35.63
20115;BME280;10218;42.874;25.320;2023-11-21T08:53:24;96880.28;;;22.16;34.69
20115;BME280;10218;42.874;25.320;2023-11-21T08:55:53;96880.94;;;20.33;36.04
20115;BME280;10218;42.874;25.320;2023-11-21T08:58:20;96884.66;;;20.03;36.50
20115;BME280;10218;42.874;25.320;2023-11-21T09:00:48;96877.28;;;20.27;37.18
20115;BME280;10218;42.874;25.320;2023-11-21T09:03:15;96867.28;;;21.13;35.73
20115;BME280;10218;42.874;25.320;2023-11-21T09:05:42;96868.06;;;21.97;34.99
20115;BME280;10218;42.874;25.320;2023-11-21T09:08:09;96862.31;;;20.25;36.54
20115;BME280;10218;42.874;25.320;2023-11-21T09:10:36;96841.22;;;21.00;36.21
20115;BME280;10218;42.874;25.320;2023-11-21T09:13:03;96868.31;;;19.75;38.60
20115;BME280;10218;42.874;25.320;2023-11-21T09:15:31;96855.41;;;20.05;38.27
20115;BME280;10218;42.874;25.320;2023-11-21T09:17:58;96851.13;;;20.21;38.29
20115;BME280;10218;42.874;25.320;2023-11-21T09:20:26;96846.37;;;20.40;37.90
20115;BME280;10218;42.874;25.320;2023-11-21T09:22:54;96855.38;;;20.17;38.71
20115;BME280;10218;42.874;25.320;2023-11-21T09:25:22;96840.78;;;21.20;36.78
20115;BME280;10218;42.874;25.320;2023-11-21T09:27:49;96850.31;;;21.39;36.23
20115;BME280;10218;42.874;25.320;2023-11-21T09:30:16;96840.97;;;20.17;37.78
20115;BME280;10218;42.874;25.320;2023-11-21T09:32:44;96842.94;;;19.81;38.74
20115;BME280;10218;42.874;25.320;2023-11-21T09:35:12;96837.19;;;19.43;39.10
20115;BME280;10218;42.874;25.320;2023-11-21T09:37:40;96836.13;;;19.79;39.01
20115;BME280;10218;42.874;25.320;2023-11-21T09:40:10;96844.94;;;19.04;39.71
20115;BME280;10218;42.874;25.320;2023-11-21T09:42:46;96826.97;;;20.76;37.64
20115;BME280;10218;42.874;25.320;2023-11-21T09:45:27;96832.31;;;21.16;36.44
20115;BME280;10218;42.874;25.320;2023-11-21T09:47:58;96812.38;;;19.97;39.07
20115;BME280;10218;42.874;25.320;2023-11-21T09:50:26;96811.84;;;19.02;39.23
20115;BME280;10218;42.874;25.320;2023-11-21T09:53:18;96798.13;;;20.30;37.91
20115;BME280;10218;42.874;25.320;2023-11-21T09:55:50;96800.34;;;20.45;37.15
20115;BME280;10218;42.874;25.320;2023-11-21T09:58:19;96787.28;;;20.59;36.61
20115;BME280;10218;42.874;25.320;2023-11-21T10:00:48;96798.09;;;20.02;37.55
20115;BME280;10218;42.874;25.320;2023-11-21T10:03:16;96794.06;;;19.18;38.53
20115;BME280;10218;42.874;25.320;2023-11-21T10:05:44;96764.25;;;18.71;39.64
20115;BME280;10218;42.874;25.320;2023-11-21T10:08:13;96789.12;;;18.20;40.47
20115;BME280;10218;42.874;25.320;2023-11-21T10:10:44;96782.53;;;17.98;40.36
20115;BME280;10218;42.874;25.320;2023-11-21T10:13:13;96781.22;;;18.19;39.75
20115;BME280;10218;42.874;25.320;2023-11-21T10:15:44;96778.41;;;19.20;38.94
20115;BME280;10218;42.874;25.320;2023-11-21T10:18:16;96775.94;;;19.42;38.20
20115;BME280;10218;42.874;25.320;2023-11-21T10:20:44;96777.13;;;18.99;38.53
20115;BME280;10218;42.874;25.320;2023-11-21T10:23:20;96769.22;;;18.98;38.46
20115;BME280;10218;42.874;25.320;2023-11-21T10:25:50;96760.03;;;19.57;37.97
20115;BME280;10218;42.874;25.320;2023-11-21T10:28:19;96747.56;;;19.21;38.59
20115;BME280;10218;42.874;25.320;2023-11-21T10:30:47;96751.72;;;21.22;35.88
20115;BME280;10218;42.874;25.320;2023-11-21T10:33:14;96744.88;;;21.80;34.60
20115;BME280;10218;42.874;25.320;2023-11-21T10:38:09;96745.00;;;21.46;35.33
20115;BME280;10218;42.874;25.320;2023-11-21T10:40:40;96736.41;;;21.16;36.07
20115;BME280;10218;42.874;25.320;2023-11-21T10:43:09;96735.34;;;21.17;36.34
20115;BME280;10218;42.874;25.320;2023-11-21T10:45:37;96733.25;;;20.90;37.17
20115;BME280;10218;42.874;25.320;2023-11-21T10:48:14;96725.03;;;21.02;37.47
20115;BME280;10218;42.874;25.320;2023-11-21T10:50:46;96730.09;;;21.70;37.28
20115;BME280;10218;42.874;25.320;2023-11-21T10:53:13;96709.78;;;21.56;36.13
20115;BME280;10218;42.874;25.320;2023-11-21T10:55:41;96715.50;;;22.25;36.33
20115;BME280;10218;42.874;25.320;2023-11-21T10:58:13;96709.25;;;21.98;36.78
20115;BME280;10218;42.874;25.320;2023-11-21T11:00:41;96704.44;;;19.94;40.83
20115;BME280;10218;42.874;25.320;2023-11-21T11:03:09;96681.19;;;19.70;42.65
20115;BME280;10218;42.874;25.320;2023-11-21T11:05:43;96690.03;;;19.94;42.85
20115;BME280;10218;42.874;25.320;2023-11-21T11:08:18;96690.53;;;21.19;40.81
20115;BME280;10218;42.874;25.320;2023-11-21T11:10:53;96687.47;;;20.77;41.50
20115;BME280;10218;42.874;25.320;2023-11-21T11:13:21;96683.91;;;21.54;41.20
20115;BME280;10218;42.874;25.320;2023-11-21T11:15:50;96684.06;;;20.37;42.18
20115;BME280;10218;42.874;25.320;2023-11-21T11:18:18;96670.44;;;20.65;42.26
20115;BME280;10218;42.874;25.320;2023-11-21T11:20:49;96663.97;;;21.43;41.17
20115;BME280;10218;42.874;25.320;2023-11-21T11:26:34;96671.47;;;21.36;41.52
20115;BME280;10218;42.874;25.320;2023-11-21T11:29:43;96663.47;;;21.46;41.64
20115;BME280;10218;42.874;25.320;2023-11-21T11:32:58;96657.75;;;21.26;41.75
20115;BME280;10218;42.874;25.320;2023-11-21T11:35:33;96651.38;;;20.99;44.05
20115;BME280;10218;42.874;25.320;2023-11-21T11:38:01;96639.69;;;21.15;42.66
20115;BME280;10218;42.874;25.320;2023-11-21T11:40:44;96642.91;;;20.12;45.44
20115;BME280;10218;42.874;25.320;2023-11-21T11:43:12;96632.37;;;18.67;49.20
20115;BME280;10218;42.874;25.320;2023-11-21T11:45:48;96627.50;;;18.46;50.92
20115;BME280;10218;42.874;25.320;2023-11-21T11:48:18;96639.75;;;18.95;50.56
20115;BME280;10218;42.874;25.320;2023-11-21T11:51:02;96629.97;;;19.05;49.63
20115;BME280;10218;42.874;25.320;2023-11-21T11:53:37;96622.94;;;18.81;50.53
20115;BME280;10218;42.874;25.320;2023-11-21T11:56:24;96619.41;;;19.44;49.16
20115;BME280;10218;42.874;25.320;2023-11-21T11:58:56;96618.31;;;18.12;53.76
20115;BME280;10218;42.874;25.320;2023-11-21T12:01:26;96611.66;;;18.61;54.69
20115;BME280;10218;42.874;25.320;2023-11-21T12:06:42;96612.47;;;20.38;46.64
20115;BME280;10218;42.874;25.320;2023-11-21T12:09:19;96596.91;;;20.88;45.54
20115;BME280;10218;42.874;25.320;2023-11-21T12:11:48;96591.88;;;20.08;46.68
20115;BME280;10218;42.874;25.320;2023-11-21T12:14:16;96576.41;;;19.76;49.11
20115;BME280;10218;42.874;25.320;2023-11-21T12:16:45;96584.72;;;18.31;54.56
20115;BME280;10218;42.874;25.320;2023-11-21T12:19:12;96577.25;;;18.03;56.01
20115;BME280;10218;42.874;25.320;2023-11-21T12:21:40;96584.38;;;18.62;52.96
20115;BME280;10218;42.874;25.320;2023-11-21T12:24:11;96584.88;;;19.51;51.24
20115;BME280;10218;42.874;25.320;2023-11-21T12:26:41;96589.66;;;19.20;51.22
20115;BME280;10218;42.874;25.320;2023-11-21T12:29:09;96588.78;;;17.87;56.54
20115;BME280;10218;42.874;25.320;2023-11-21T12:31:37;96576.34;;;18.09;57.23
20115;BME280;10218;42.874;25.320;2023-11-21T12:34:05;96585.72;;;17.95;59.63
20115;BME280;10218;42.874;25.320;2023-11-21T12:36:34;96581.41;;;17.34;65.82
20115;BME280;10218;42.874;25.320;2023-11-21T12:39:02;96586.87;;;17.28;68.14
20115;BME280;10218;42.874;25.320;2023-11-21T12:41:30;96579.47;;;17.23;69.71
20115;BME280;10218;42.874;25.320;2023-11-21T12:43:57;96573.44;;;17.09;67.52
20115;BME280;10218;42.874;25.320;2023-11-21T12:46:25;96586.31;;;17.26;69.13
20115;BME280;10218;42.874;25.320;2023-11-21T12:48:57;96580.91;;;17.07;68.27
20115;BME280;10218;42.874;25.320;2023-11-21T12:51:24;96583.72;;;17.01;71.02
20115;BME280;10218;42.874;25.320;2023-11-21T12:53:52;96582.62;;;16.47;80.61
20115;BME280;10218;42.874;25.320;2023-11-21T12:56:21;96562.47;;;16.50;79.52
20115;BME280;10218;42.874;25.320;2023-11-21T12:58:50;96571.84;;;16.47;78.76
20115;BME280;10218;42.874;25.320;2023-11-21T13:01:25;96567.75;;;16.20;81.34
20115;BME280;10218;42.874;25.320;2023-11-21T13:03:57;96586.22;;;16.16;84.13
20115;BME280;10218;42.874;25.320;2023-11-21T13:06:25;96570.69;;;16.37;80.57